createdAt,value
2023-01-29T00:01:42.960Z,7.77
2023-01-29T00:04:10.669Z,7.80
2023-01-29T00:06:40.021Z,10.27
2023-01-29T00:09:07.507Z,8.03
2023-01-29T00:11:36.040Z,11.80
2023-01-29T00:14:03.567Z,7.13
2023-01-29T00:16:31.084Z,7.63
2023-01-29T00:18:58.671Z,7.37
2023-01-29T00:21:26.201Z,8.20
2023-01-29T00:23:56.128Z,8.93
2023-01-29T00:26:23.842Z,7.57
2023-01-29T00:28:51.333Z,9.03
2023-01-29T00:31:20.798Z,7.57
2023-01-29T00:33:48.927Z,9.90
2023-01-29T00:36:17.835Z,8.23
2023-01-29T00:38:46.394Z,8.57
2023-01-29T00:41:34.463Z,6.47
2023-01-29T00:44:28.680Z,7.27
2023-01-29T00:46:56.288Z,8.53
2023-01-29T00:49:24.216Z,6.87
2023-01-29T00:52:05.653Z,7.03
2023-01-29T00:54:33.355Z,6.93
2023-01-29T00:57:02.245Z,7.43
2023-01-29T00:59:29.979Z,7.27
2023-01-29T01:02:11.601Z,7.23
2023-01-29T01:04:39.107Z,8.10
2023-01-29T01:07:07.517Z,6.80
2023-01-29T01:09:53.676Z,8.57
2023-01-29T01:12:23.182Z,9.83
2023-01-29T01:14:50.959Z,7.37
2023-01-29T01:17:18.700Z,6.80
2023-01-29T01:19:46.196Z,8.37
2023-01-29T01:22:13.639Z,9.33
2023-01-29T01:24:41.174Z,7.40
2023-01-29T01:27:08.887Z,8.30
2023-01-29T01:29:37.895Z,7.30
2023-01-29T01:32:06.172Z,8.07
2023-01-29T01:34:33.752Z,7.73
2023-01-29T01:37:01.306Z,8.00
2023-01-29T01:39:28.838Z,6.70
2023-01-29T01:41:56.439Z,8.20
2023-01-29T01:45:04.261Z,8.27
2023-01-29T01:47:36.424Z,7.70
2023-01-29T01:50:08.800Z,7.40
2023-01-29T01:52:39.183Z,7.70
2023-01-29T01:55:07.949Z,7.50
2023-01-29T01:57:35.957Z,7.60
2023-01-29T02:00:11.581Z,9.17
2023-01-29T02:02:59.212Z,7.27
2023-01-29T02:05:45.757Z,7.60
2023-01-29T02:08:31.436Z,8.53
2023-01-29T02:10:59.224Z,6.53
2023-01-29T02:13:27.593Z,7.23
2023-01-29T02:15:56.370Z,7.43
2023-01-29T02:18:23.871Z,7.33
2023-01-29T02:21:08.455Z,8.67
2023-01-29T02:24:12.395Z,6.83
2023-01-29T02:26:56.459Z,6.47
2023-01-29T02:29:34.534Z,7.83
2023-01-29T02:32:17.260Z,8.47
2023-01-29T02:35:10.957Z,7.07
2023-01-29T02:37:46.507Z,7.57
2023-01-29T02:40:25.996Z,6.60
2023-01-29T02:43:03.163Z,5.77
2023-01-29T02:45:34.960Z,4.50
2023-01-29T02:48:04.193Z,5.10
2023-01-29T02:50:38.441Z,5.20
2023-01-29T02:53:10.353Z,6.07
2023-01-29T02:55:43.367Z,5.80
2023-01-29T02:58:14.366Z,5.80
2023-01-29T03:00:47.654Z,5.33
2023-01-29T03:03:19.255Z,5.63
2023-01-29T03:05:54.966Z,5.60
2023-01-29T03:08:36.948Z,5.40
2023-01-29T03:11:07.512Z,5.33
2023-01-29T03:13:41.815Z,5.60
2023-01-29T03:16:19.404Z,5.53
2023-01-29T03:18:53.578Z,5.73
2023-01-29T03:21:43.333Z,6.10
2023-01-29T03:24:31.680Z,4.90
2023-01-29T03:27:21.479Z,5.07
2023-01-29T03:30:08.897Z,5.17
2023-01-29T03:32:39.288Z,5.33
2023-01-29T03:35:11.873Z,5.73
2023-01-29T03:37:45.497Z,4.73
2023-01-29T03:40:14.817Z,4.60
2023-01-29T03:42:56.904Z,5.30
2023-01-29T03:45:33.716Z,5.00
2023-01-29T03:48:10.399Z,4.50
2023-01-29T03:50:42.914Z,4.07
2023-01-29T03:53:18.017Z,5.07
2023-01-29T03:55:55.253Z,6.30
2023-01-29T03:58:30.542Z,4.90
2023-01-29T04:01:03.651Z,4.63
2023-01-29T04:03:35.978Z,4.93
2023-01-29T04:06:10.688Z,4.57
2023-01-29T04:08:46.370Z,4.87
2023-01-29T04:11:17.410Z,4.07
2023-01-29T04:13:44.897Z,4.77
2023-01-29T04:16:18.830Z,4.50
2023-01-29T04:18:49.164Z,5.23
2023-01-29T04:21:17.509Z,5.20
2023-01-29T04:23:45.082Z,4.67
2023-01-29T04:26:26.526Z,3.90
2023-01-29T04:29:04.692Z,4.60
2023-01-29T04:31:39.763Z,5.00
2023-01-29T04:34:19.173Z,4.77
2023-01-29T04:36:54.009Z,5.53
2023-01-29T04:39:27.008Z,4.47
2023-01-29T04:42:00.802Z,4.50
2023-01-29T04:44:36.417Z,4.50
2023-01-29T04:47:12.636Z,4.60
2023-01-29T04:49:46.720Z,4.97
2023-01-29T04:52:21.844Z,5.27
2023-01-29T04:54:58.677Z,5.97
2023-01-29T04:57:31.132Z,4.87
2023-01-29T05:00:03.819Z,9.03
2023-01-29T05:02:35.381Z,5.03
2023-01-29T05:05:06.905Z,5.87
2023-01-29T05:07:37.641Z,5.73
2023-01-29T05:10:06.563Z,5.80
2023-01-29T05:12:35.376Z,5.57
2023-01-29T05:15:07.625Z,6.00
2023-01-29T05:17:35.141Z,4.73
2023-01-29T05:20:04.422Z,4.73
2023-01-29T05:22:32.135Z,5.07
2023-01-29T05:24:59.663Z,5.50
2023-01-29T05:27:50.850Z,6.30
2023-01-29T05:30:18.746Z,5.43
2023-01-29T05:32:46.452Z,6.20
2023-01-29T05:35:15.370Z,6.43
2023-01-29T05:37:42.865Z,6.37
2023-01-29T05:40:11.188Z,5.63
2023-01-29T05:42:38.664Z,5.77
2023-01-29T05:45:07.236Z,5.07
2023-01-29T05:47:34.746Z,5.87
2023-01-29T05:50:02.261Z,5.80
2023-01-29T05:52:31.053Z,5.50
2023-01-29T05:54:58.516Z,4.47
2023-01-29T05:57:25.989Z,6.43
2023-01-29T05:59:53.432Z,5.07
2023-01-29T06:02:21.217Z,7.23
2023-01-29T06:04:48.676Z,6.57
2023-01-29T06:07:16.164Z,6.40
2023-01-29T06:09:44.985Z,6.97
2023-01-29T06:12:12.917Z,6.40
2023-01-29T06:14:40.386Z,6.53
2023-01-29T06:17:07.876Z,7.27
2023-01-29T06:19:35.331Z,8.27
2023-01-29T06:22:02.788Z,7.07
2023-01-29T06:24:30.516Z,5.90
2023-01-29T06:26:59.362Z,6.17
2023-01-29T06:29:26.814Z,5.93
2023-01-29T06:31:54.418Z,7.03
2023-01-29T06:34:21.953Z,6.40
2023-01-29T06:36:49.426Z,7.40
2023-01-29T06:39:16.960Z,7.13
2023-01-29T06:41:45.321Z,6.70
2023-01-29T06:44:14.207Z,8.00
2023-01-29T06:46:41.807Z,7.57
2023-01-29T06:49:09.239Z,7.70
2023-01-29T06:51:36.730Z,6.67
2023-01-29T06:54:06.324Z,8.93
2023-01-29T06:56:33.792Z,7.87
2023-01-29T06:59:01.302Z,8.83
2023-01-29T07:01:36.077Z,6.67
2023-01-29T07:04:04.509Z,6.67
2023-01-29T07:06:32.333Z,6.97
2023-01-29T07:08:59.925Z,6.90
2023-01-29T07:11:27.399Z,6.73
2023-01-29T07:13:54.850Z,6.87
2023-01-29T07:16:23.298Z,6.43
2023-01-29T07:18:52.127Z,7.90
2023-01-29T07:21:19.578Z,8.10
2023-01-29T07:23:47.056Z,8.27
2023-01-29T07:26:14.526Z,7.50
2023-01-29T07:28:42.459Z,7.27
2023-01-29T07:31:14.285Z,9.13
2023-01-29T07:33:43.451Z,6.30
2023-01-29T07:36:12.998Z,8.43
2023-01-29T07:38:40.479Z,7.30
2023-01-29T07:41:08.110Z,8.07
2023-01-29T07:43:35.822Z,8.17
2023-01-29T07:46:04.760Z,7.47
2023-01-29T07:48:32.298Z,7.50
2023-01-29T07:50:59.972Z,11.37
2023-01-29T07:53:29.432Z,8.53
2023-01-29T07:55:57.267Z,9.07
2023-01-29T07:58:24.856Z,8.23
2023-01-29T08:00:52.454Z,10.33
2023-01-29T08:03:21.152Z,9.17
2023-01-29T08:05:49.046Z,7.90
2023-01-29T08:08:16.555Z,7.13
2023-01-29T08:10:45.374Z,8.83
2023-01-29T08:13:12.888Z,11.37
2023-01-29T08:15:43.578Z,8.17
2023-01-29T08:18:11.030Z,12.63
2023-01-29T08:20:38.516Z,6.77
2023-01-29T08:23:07.302Z,7.53
2023-01-29T08:25:36.727Z,7.80
2023-01-29T08:28:05.718Z,8.90
2023-01-29T08:30:34.882Z,10.67
2023-01-29T08:33:03.900Z,11.87
2023-01-29T08:35:31.504Z,8.60
2023-01-29T08:38:00.575Z,9.37
2023-01-29T08:40:29.294Z,9.43
2023-01-29T08:43:01.988Z,8.57
2023-01-29T08:45:32.121Z,11.10
2023-01-29T08:47:59.567Z,8.63
2023-01-29T08:50:27.290Z,6.87
2023-01-29T08:52:58.528Z,7.90
2023-01-29T08:55:26.073Z,10.83
2023-01-29T08:57:53.554Z,7.43
2023-01-29T09:00:21.884Z,13.03
2023-01-29T09:02:50.636Z,13.47
2023-01-29T09:05:18.738Z,15.00
2023-01-29T09:07:46.447Z,7.07
2023-01-29T09:10:13.914Z,8.80
2023-01-29T09:12:41.371Z,8.13
2023-01-29T09:15:10.029Z,9.23
2023-01-29T09:17:37.509Z,8.13
2023-01-29T09:20:07.447Z,7.73
2023-01-29T09:22:35.418Z,8.47
2023-01-29T09:25:03.485Z,17.73
2023-01-29T09:27:30.996Z,16.00
2023-01-29T09:29:58.425Z,8.27
2023-01-29T09:32:52.030Z,17.40
2023-01-29T09:35:15.077Z,12.30
2023-01-29T09:37:42.825Z,8.73
2023-01-29T09:40:22.522Z,8.20
2023-01-29T09:42:52.973Z,7.40
2023-01-29T09:45:24.933Z,9.53
2023-01-29T09:47:53.425Z,9.07
2023-01-29T09:50:27.335Z,8.30
2023-01-29T09:52:58.003Z,8.30
2023-01-29T09:55:28.384Z,8.63
2023-01-29T09:57:59.115Z,10.27
2023-01-29T10:00:32.440Z,9.13
2023-01-29T10:03:16.527Z,7.03
2023-01-29T10:05:59.391Z,19.97
2023-01-29T10:09:02.829Z,14.87
2023-01-29T10:11:43.884Z,18.80
2023-01-29T10:14:19.736Z,22.67
2023-01-29T10:17:03.145Z,34.23
2023-01-29T10:19:58.185Z,41.53
2023-01-29T10:22:46.770Z,40.80
2023-01-29T10:25:17.010Z,31.70
2023-01-29T10:27:50.965Z,26.00
2023-01-29T10:30:27.021Z,24.13
2023-01-29T10:32:56.378Z,30.30
2023-01-29T10:35:26.163Z,16.47
2023-01-29T10:37:55.844Z,15.20
2023-01-29T10:40:25.071Z,16.43
2023-01-29T10:43:00.707Z,15.73
2023-01-29T10:45:37.846Z,10.87
2023-01-29T10:48:21.887Z,19.50
2023-01-29T10:50:54.649Z,22.43
2023-01-29T10:53:48.163Z,16.97
2023-01-29T10:56:29.751Z,30.30
2023-01-29T10:59:02.116Z,25.93
2023-01-29T11:01:29.601Z,20.53
2023-01-29T11:04:00.318Z,22.20
2023-01-29T11:06:31.555Z,24.60
2023-01-29T11:09:07.999Z,45.57
2023-01-29T11:11:39.854Z,46.23
2023-01-29T11:14:13.023Z,42.70
2023-01-29T11:16:45.585Z,48.63
2023-01-29T11:19:14.084Z,45.60
2023-01-29T11:21:53.570Z,56.90
2023-01-29T11:24:22.368Z,55.73
2023-01-29T11:26:52.525Z,56.10
2023-01-29T11:29:39.981Z,46.53
2023-01-29T11:32:12.460Z,47.20
2023-01-29T11:34:58.662Z,59.13
2023-01-29T11:37:33.950Z,53.40
2023-01-29T11:40:02.919Z,52.30
2023-01-29T11:42:33.721Z,47.47
2023-01-29T11:45:01.305Z,52.60
2023-01-29T11:47:31.430Z,53.23
2023-01-29T11:50:02.325Z,57.23
2023-01-29T11:52:40.731Z,50.10
2023-01-29T11:55:18.608Z,45.33
2023-01-29T11:57:51.628Z,48.00
2023-01-29T12:00:23.538Z,49.23
2023-01-29T12:02:55.391Z,47.80
2023-01-29T12:05:25.348Z,42.87
2023-01-29T12:07:56.423Z,20.33
2023-01-29T12:10:34.269Z,31.17
2023-01-29T12:13:19.922Z,39.07
2023-01-29T12:15:49.447Z,33.07
2023-01-29T12:18:26.847Z,36.37
2023-01-29T12:20:58.558Z,24.93
2023-01-29T12:23:36.215Z,27.43
2023-01-29T12:26:10.541Z,26.00
2023-01-29T12:28:49.373Z,19.67
2023-01-29T12:31:25.109Z,14.37
2023-01-29T12:33:57.568Z,6.63
2023-01-29T12:36:29.235Z,7.53
2023-01-29T12:38:56.725Z,16.53
2023-01-29T12:41:34.998Z,23.33
2023-01-29T12:44:07.067Z,22.17
2023-01-29T12:46:39.865Z,20.87
2023-01-29T12:49:16.266Z,16.33
2023-01-29T12:51:54.233Z,29.73
2023-01-29T12:54:27.443Z,24.60
2023-01-29T12:57:00.932Z,16.67
2023-01-29T12:59:32.494Z,13.20
2023-01-29T13:02:10.863Z,10.13
2023-01-29T13:04:43.179Z,11.20
2023-01-29T13:07:15.852Z,13.93
2023-01-29T13:09:46.636Z,16.60
2023-01-29T13:12:18.534Z,15.40
2023-01-29T13:14:50.713Z,12.30
2023-01-29T13:17:24.584Z,17.13
2023-01-29T13:19:55.241Z,36.30
2023-01-29T13:22:26.551Z,45.00
2023-01-29T13:25:04.168Z,38.43
2023-01-29T13:27:36.130Z,20.40
2023-01-29T13:30:04.570Z,25.13
2023-01-29T13:32:33.718Z,19.33
2023-01-29T13:35:05.046Z,29.57
2023-01-29T13:37:34.995Z,40.17
2023-01-29T13:40:05.007Z,42.43
2023-01-29T13:42:43.523Z,57.00
2023-01-29T13:45:21.294Z,50.23
2023-01-29T13:47:52.000Z,51.87
2023-01-29T13:50:25.419Z,48.43
2023-01-29T13:52:58.644Z,50.27
2023-01-29T13:55:31.288Z,42.23
2023-01-29T13:58:01.597Z,46.17
2023-01-29T14:00:56.236Z,50.50
2023-01-29T14:04:04.663Z,53.23
2023-01-29T14:06:48.557Z,53.23
2023-01-29T14:09:51.061Z,54.70
2023-01-29T14:12:37.328Z,54.83
2023-01-29T14:15:23.311Z,54.10
2023-01-29T14:18:01.383Z,57.63
2023-01-29T14:20:45.158Z,61.37
2023-01-29T14:23:25.000Z,53.53
2023-01-29T14:25:52.697Z,57.00
2023-01-29T14:28:24.885Z,61.10
2023-01-29T14:30:55.013Z,55.60
2023-01-29T14:33:28.330Z,47.10
2023-01-29T14:35:57.838Z,40.53
2023-01-29T14:38:28.905Z,45.00
2023-01-29T14:41:15.757Z,38.87
2023-01-29T14:43:43.287Z,31.60
2023-01-29T14:46:46.321Z,27.40
2023-01-29T14:49:13.776Z,20.13
2023-01-29T14:51:46.509Z,19.50
2023-01-29T14:54:21.944Z,18.83
2023-01-29T14:56:59.376Z,26.70
2023-01-29T14:59:33.970Z,23.77
2023-01-29T15:02:11.466Z,16.33
2023-01-29T15:04:44.927Z,15.17
2023-01-29T15:07:21.919Z,15.27
2023-01-29T15:09:57.280Z,14.13
2023-01-29T15:12:33.537Z,10.83
2023-01-29T15:15:07.958Z,12.53
2023-01-29T15:17:41.488Z,11.30
2023-01-29T15:20:29.873Z,11.07
2023-01-29T15:22:57.839Z,8.83
2023-01-29T15:25:26.019Z,8.87
2023-01-29T15:27:55.782Z,8.23
2023-01-29T15:30:33.187Z,8.47
2023-01-29T15:33:03.991Z,9.43
2023-01-29T15:35:36.040Z,8.07
2023-01-29T15:38:06.551Z,10.53
2023-01-29T15:40:35.283Z,7.93
2023-01-29T15:43:02.796Z,9.43
2023-01-29T15:45:32.103Z,9.43
2023-01-29T15:48:06.491Z,9.00
2023-01-29T15:50:37.509Z,9.73
2023-01-29T15:53:10.266Z,9.50
2023-01-29T15:55:37.863Z,10.43
2023-01-29T15:58:05.652Z,10.67
2023-01-29T16:00:33.276Z,10.13
2023-01-29T16:03:14.047Z,11.40
2023-01-29T16:05:42.007Z,9.63
2023-01-29T16:08:14.570Z,9.93
2023-01-29T16:10:43.251Z,11.30
2023-01-29T16:13:19.894Z,10.50
2023-01-29T16:15:56.783Z,10.43
2023-01-29T16:18:29.713Z,11.53
2023-01-29T16:20:59.873Z,11.20
2023-01-29T16:23:30.489Z,14.20
2023-01-29T16:26:03.204Z,13.97
2023-01-29T16:28:31.321Z,10.63
2023-01-29T16:31:02.872Z,11.80
2023-01-29T16:33:36.231Z,11.60
2023-01-29T16:36:05.739Z,10.10
2023-01-29T16:38:36.595Z,11.63
2023-01-29T16:41:16.326Z,10.77
2023-01-29T16:43:54.085Z,12.10
2023-01-29T16:46:26.279Z,11.03
2023-01-29T16:48:55.391Z,14.33
2023-01-29T16:51:26.149Z,11.17
2023-01-29T16:53:56.778Z,24.43
2023-01-29T16:56:25.503Z,11.43
2023-01-29T16:58:55.285Z,10.63
2023-01-29T17:01:25.365Z,10.30
2023-01-29T17:04:05.716Z,12.00
2023-01-29T17:06:33.695Z,11.73
2023-01-29T17:09:01.819Z,11.87
2023-01-29T17:11:34.559Z,17.83
2023-01-29T17:14:02.244Z,12.03
2023-01-29T17:16:32.385Z,12.57
2023-01-29T17:19:02.016Z,13.67
2023-01-29T17:21:30.607Z,13.77
2023-01-29T17:23:58.087Z,14.27
2023-01-29T17:26:25.781Z,13.40
2023-01-29T17:28:54.670Z,12.97
2023-01-29T17:31:22.267Z,14.33
2023-01-29T17:33:49.853Z,12.60
2023-01-29T17:36:19.191Z,12.07
2023-01-29T17:38:47.835Z,15.07
2023-01-29T17:41:20.759Z,11.60
2023-01-29T17:43:48.543Z,13.67
2023-01-29T17:46:18.273Z,12.47
2023-01-29T17:48:46.392Z,13.27
2023-01-29T17:51:16.106Z,12.97
2023-01-29T17:53:46.954Z,14.97
2023-01-29T17:56:17.241Z,14.77
2023-01-29T17:58:45.172Z,14.23
2023-01-29T18:01:12.628Z,15.43
2023-01-29T18:03:40.102Z,16.40
2023-01-29T18:06:08.871Z,14.27
2023-01-29T18:08:38.942Z,13.23
2023-01-29T18:11:07.750Z,15.67
2023-01-29T18:13:36.407Z,18.03
2023-01-29T18:16:04.002Z,16.60
2023-01-29T18:18:31.514Z,16.93
2023-01-29T18:20:58.961Z,14.63
2023-01-29T18:23:26.429Z,15.53
2023-01-29T18:25:57.475Z,13.43
2023-01-29T18:28:26.599Z,13.33
2023-01-29T18:30:54.240Z,15.40
2023-01-29T18:33:24.025Z,13.10
2023-01-29T18:35:51.490Z,16.43
2023-01-29T18:38:18.979Z,13.53
2023-01-29T18:40:46.450Z,15.60
2023-01-29T18:43:14.939Z,14.83
2023-01-29T18:45:44.200Z,15.00
2023-01-29T18:48:11.696Z,14.60
2023-01-29T18:50:39.180Z,15.07
2023-01-29T18:53:07.618Z,16.70
2023-01-29T18:55:37.415Z,15.00
2023-01-29T18:58:28.203Z,14.90
2023-01-29T19:00:53.754Z,16.40
2023-01-29T19:03:21.553Z,17.23
2023-01-29T19:05:49.013Z,20.87
2023-01-29T19:08:16.518Z,15.70
2023-01-29T19:10:43.989Z,14.40
2023-01-29T19:13:11.447Z,14.90
2023-01-29T19:15:42.964Z,15.27
2023-01-29T19:18:14.712Z,14.67
2023-01-29T19:20:42.776Z,15.93
2023-01-29T19:23:10.458Z,16.90
2023-01-29T19:25:38.757Z,14.43
2023-01-29T19:28:07.573Z,13.83
2023-01-29T19:30:35.106Z,13.53
2023-01-29T19:33:03.004Z,15.80
2023-01-29T19:35:32.592Z,14.33
2023-01-29T19:38:00.396Z,13.93
2023-01-29T19:40:28.029Z,15.10
2023-01-29T19:42:56.429Z,13.70
2023-01-29T19:45:49.145Z,15.07
2023-01-29T19:48:14.397Z,14.63
2023-01-29T19:50:43.343Z,15.40
2023-01-29T19:53:10.824Z,14.27
2023-01-29T19:55:38.314Z,18.80
2023-01-29T19:58:05.810Z,15.77
2023-01-29T20:00:33.315Z,17.57
2023-01-29T20:03:00.820Z,15.17
2023-01-29T20:05:28.394Z,14.40
2023-01-29T20:07:57.288Z,14.90
2023-01-29T20:10:24.780Z,21.17
2023-01-29T20:12:52.313Z,18.20
2023-01-29T20:15:19.800Z,20.27
2023-01-29T20:17:47.269Z,17.80
2023-01-29T20:20:16.249Z,17.37
2023-01-29T20:22:44.557Z,17.27
2023-01-29T20:25:14.421Z,18.63
2023-01-29T20:27:42.095Z,18.67
2023-01-29T20:30:11.023Z,17.07
2023-01-29T20:32:38.505Z,17.97
2023-01-29T20:35:06.856Z,18.57
2023-01-29T20:37:34.322Z,21.37
2023-01-29T20:40:01.873Z,17.73
2023-01-29T20:42:30.737Z,19.13
2023-01-29T20:44:58.193Z,18.97
2023-01-29T20:47:25.733Z,19.97
2023-01-29T20:49:53.204Z,22.47
2023-01-29T20:52:20.674Z,21.83
2023-01-29T20:54:48.293Z,23.93
2023-01-29T20:57:16.096Z,20.07
2023-01-29T20:59:45.095Z,18.87
2023-01-29T21:02:12.598Z,18.33
2023-01-29T21:04:40.072Z,18.67
2023-01-29T21:07:07.523Z,20.40
2023-01-29T21:09:35.061Z,19.93
2023-01-29T21:12:05.215Z,19.93
2023-01-29T21:14:32.875Z,19.93
2023-01-29T21:17:02.187Z,23.03
2023-01-29T21:19:30.793Z,21.17
2023-01-29T21:21:58.816Z,21.93
2023-01-29T21:24:26.875Z,20.57
2023-01-29T21:26:54.549Z,22.37
2023-01-29T21:29:22.047Z,23.27
2023-01-29T21:31:49.633Z,21.53
2023-01-29T21:34:18.513Z,23.13
2023-01-29T21:36:46.733Z,23.13
2023-01-29T21:39:20.983Z,21.90
2023-01-29T21:42:08.252Z,26.50
2023-01-29T21:44:36.391Z,23.03
2023-01-29T21:47:12.107Z,24.30
2023-01-29T21:49:45.030Z,26.30
2023-01-29T21:52:13.898Z,23.53
2023-01-29T21:54:41.834Z,26.13
2023-01-29T21:57:14.787Z,23.83
2023-01-29T21:59:42.718Z,24.73
2023-01-29T22:02:14.463Z,25.73
2023-01-29T22:04:42.196Z,24.80
2023-01-29T22:07:11.882Z,26.30
2023-01-29T22:09:39.720Z,24.37
2023-01-29T22:12:08.624Z,27.30
2023-01-29T22:14:36.117Z,28.50
2023-01-29T22:17:03.878Z,27.30
2023-01-29T22:19:31.370Z,27.63
2023-01-29T22:21:58.819Z,26.00
2023-01-29T22:24:27.875Z,29.37
2023-01-29T22:26:55.360Z,28.73
2023-01-29T22:29:23.029Z,25.03
2023-01-29T22:31:50.494Z,27.43
2023-01-29T22:34:17.962Z,26.20
2023-01-29T22:36:45.426Z,26.53
2023-01-29T22:39:13.402Z,28.17
2023-01-29T22:41:42.216Z,27.00
2023-01-29T22:44:09.850Z,28.17
2023-01-29T22:46:37.328Z,31.63
2023-01-29T22:49:04.900Z,28.63
2023-01-29T22:51:32.440Z,28.40
2023-01-29T22:54:01.079Z,32.47
2023-01-29T22:56:29.667Z,30.93
2023-01-29T22:59:00.016Z,27.37
2023-01-29T23:01:29.332Z,29.33
2023-01-29T23:03:57.056Z,29.10
2023-01-29T23:06:25.235Z,26.83
2023-01-29T23:08:52.991Z,30.47
2023-01-29T23:11:23.448Z,29.90
2023-01-29T23:13:52.687Z,29.00
2023-01-29T23:16:29.171Z,27.47
2023-01-29T23:18:57.500Z,30.83
2023-01-29T23:21:27.108Z,27.77
2023-01-29T23:23:55.272Z,31.20
2023-01-29T23:26:40.803Z,27.97
2023-01-29T23:29:08.329Z,29.87
2023-01-29T23:31:37.167Z,29.83
2023-01-29T23:34:04.770Z,30.00
2023-01-29T23:36:32.237Z,32.47
2023-01-29T23:38:59.689Z,33.23
2023-01-29T23:41:27.149Z,28.77
2023-01-29T23:43:54.643Z,30.50
2023-01-29T23:46:22.154Z,29.57
2023-01-29T23:48:50.973Z,32.33
2023-01-29T23:51:18.447Z,28.00
2023-01-29T23:53:45.910Z,28.60
2023-01-29T23:56:13.523Z,27.93
2023-01-29T23:58:41.041Z,31.23
